createdAt,value
2018-09-25T00:02:33.108Z,1.93
2018-09-25T00:05:07.156Z,1.77
2018-09-25T00:07:41.270Z,1.87
2018-09-25T00:10:15.248Z,2.40
2018-09-25T00:12:49.391Z,2.07
2018-09-25T00:15:23.467Z,3.10
2018-09-25T00:17:57.463Z,0.87
2018-09-25T00:20:31.408Z,1.07
2018-09-25T00:23:05.333Z,1.33
2018-09-25T00:25:39.307Z,1.77
2018-09-25T00:28:13.441Z,1.40
2018-09-25T00:30:48.485Z,1.77
2018-09-25T00:33:22.409Z,1.40
2018-09-25T00:35:56.499Z,5.43
2018-09-25T00:38:30.661Z,1.83
2018-09-25T00:41:04.786Z,1.00
2018-09-25T00:43:40.255Z,1.83
2018-09-25T00:46:15.404Z,1.47
2018-09-25T00:48:49.510Z,1.97
2018-09-25T00:51:23.701Z,1.57
2018-09-25T00:53:58.267Z,1.00
2018-09-25T00:56:33.222Z,1.73
2018-09-25T00:59:07.428Z,1.27
2018-09-25T01:01:42.440Z,0.87
2018-09-25T01:04:17.249Z,1.70
2018-09-25T01:06:51.498Z,1.17
2018-09-25T01:09:26.124Z,1.63
2018-09-25T01:12:00.867Z,1.80
2018-09-25T01:14:40.097Z,2.80
2018-09-25T01:17:15.174Z,1.00
2018-09-25T01:19:49.357Z,2.13
2018-09-25T01:22:23.320Z,0.80
2018-09-25T01:24:57.390Z,1.40
2018-09-25T01:27:31.390Z,2.00
2018-09-25T01:30:05.425Z,2.30
2018-09-25T01:32:39.495Z,1.83
2018-09-25T01:35:13.548Z,1.03
2018-09-25T01:37:47.396Z,1.10
2018-09-25T01:40:21.785Z,0.40
2018-09-25T01:42:56.397Z,2.80
2018-09-25T01:45:30.709Z,2.20
2018-09-25T01:48:04.696Z,1.87
2018-09-25T01:50:38.659Z,1.27
2018-09-25T01:53:12.701Z,1.60
2018-09-25T01:55:46.889Z,1.40
2018-09-25T01:58:20.885Z,1.40
2018-09-25T02:00:55.495Z,1.60
2018-09-25T02:03:29.429Z,0.97
2018-09-25T02:06:07.420Z,1.63
2018-09-25T02:08:41.907Z,1.00
2018-09-25T02:11:16.026Z,1.10
2018-09-25T02:13:49.924Z,1.93
2018-09-25T02:16:24.827Z,1.30
2018-09-25T02:18:59.002Z,3.60
2018-09-25T02:21:33.306Z,2.13
2018-09-25T02:24:07.905Z,0.90
2018-09-25T02:26:42.017Z,1.17
2018-09-25T02:29:16.034Z,2.93
2018-09-25T02:31:50.943Z,1.30
2018-09-25T02:34:25.853Z,4.67
2018-09-25T02:36:59.959Z,0.77
2018-09-25T02:39:35.015Z,0.93
2018-09-25T02:42:13.261Z,2.13
2018-09-25T02:44:48.009Z,1.00
2018-09-25T02:47:21.922Z,2.77
2018-09-25T02:49:56.132Z,1.60
2018-09-25T02:52:30.180Z,1.73
2018-09-25T02:55:04.252Z,0.50
2018-09-25T02:57:38.456Z,2.67
2018-09-25T03:00:14.585Z,2.80
2018-09-25T03:02:48.572Z,1.63
2018-09-25T03:05:22.592Z,1.90
2018-09-25T03:07:56.807Z,1.53
2018-09-25T03:10:31.469Z,3.60
2018-09-25T03:13:06.462Z,0.70
2018-09-25T03:15:43.336Z,3.67
2018-09-25T03:18:17.473Z,1.27
2018-09-25T03:20:51.522Z,1.80
2018-09-25T03:23:25.563Z,2.20
2018-09-25T03:25:59.572Z,1.67
2018-09-25T03:28:33.536Z,1.33
2018-09-25T03:31:07.555Z,1.33
2018-09-25T03:33:41.499Z,2.37
2018-09-25T03:36:15.796Z,0.73
2018-09-25T03:38:50.968Z,4.27
2018-09-25T03:41:26.164Z,0.70
2018-09-25T03:44:00.300Z,2.13
2018-09-25T03:46:34.283Z,1.13
2018-09-25T03:49:08.421Z,1.63
2018-09-25T03:51:42.584Z,2.73
2018-09-25T03:54:17.806Z,1.87
2018-09-25T03:56:53.828Z,2.03
2018-09-25T03:59:28.901Z,3.37
2018-09-25T04:02:02.909Z,0.83
2018-09-25T04:04:38.760Z,0.80
2018-09-25T04:07:13.810Z,2.33
2018-09-25T04:09:48.572Z,1.27
2018-09-25T04:12:22.653Z,1.57
2018-09-25T04:14:58.220Z,2.20
2018-09-25T04:17:32.383Z,1.07
2018-09-25T04:20:09.633Z,1.23
2018-09-25T04:22:43.760Z,0.80
2018-09-25T04:25:19.445Z,0.67
2018-09-25T04:27:56.008Z,2.27
2018-09-25T04:30:30.053Z,1.57
2018-09-25T04:33:04.224Z,0.87
2018-09-25T04:35:39.263Z,2.57
2018-09-25T04:38:13.400Z,2.33
2018-09-25T04:40:47.313Z,1.80
2018-09-25T04:43:22.608Z,2.10
2018-09-25T04:45:58.992Z,2.70
2018-09-25T04:48:33.876Z,1.10
2018-09-25T04:51:11.111Z,1.67
2018-09-25T04:53:45.148Z,1.17
2018-09-25T04:56:19.252Z,2.07
2018-09-25T04:58:53.165Z,2.57
2018-09-25T05:01:27.248Z,0.80
2018-09-25T05:04:01.125Z,2.40
2018-09-25T05:06:35.290Z,3.03
2018-09-25T05:09:11.603Z,1.50
2018-09-25T05:11:45.639Z,0.60
2018-09-25T05:14:19.519Z,1.77
2018-09-25T05:16:53.493Z,1.53
2018-09-25T05:19:27.513Z,1.23
2018-09-25T05:22:01.444Z,1.30
2018-09-25T05:24:37.780Z,1.73
2018-09-25T05:27:12.780Z,1.73
2018-09-25T05:29:46.873Z,0.80
2018-09-25T05:32:21.052Z,1.67
2018-09-25T05:34:54.948Z,1.10
2018-09-25T05:37:29.014Z,1.50
2018-09-25T05:40:03.138Z,2.20
2018-09-25T05:42:37.215Z,1.93
2018-09-25T05:45:13.627Z,1.07
2018-09-25T05:47:53.589Z,0.97
2018-09-25T05:50:30.390Z,1.33
2018-09-25T05:53:07.888Z,0.83
2018-09-25T05:55:44.438Z,3.20
2018-09-25T05:58:19.189Z,0.63
2018-09-25T06:00:54.387Z,1.73
2018-09-25T06:03:29.757Z,2.77
2018-09-25T06:06:05.192Z,3.33
2018-09-25T06:08:42.882Z,1.47
2018-09-25T06:11:29.573Z,0.97
2018-09-25T06:14:10.979Z,2.93
2018-09-25T06:16:46.084Z,1.70
2018-09-25T06:19:20.871Z,0.67
2018-09-25T06:21:56.133Z,2.20
2018-09-25T06:24:35.507Z,1.37
2018-09-25T06:27:09.620Z,1.77
2018-09-25T06:29:43.606Z,1.20
2018-09-25T06:32:17.629Z,1.30
2018-09-25T06:34:51.957Z,1.63
2018-09-25T06:37:26.103Z,2.70
2018-09-25T06:40:00.045Z,1.63
2018-09-25T06:42:33.960Z,2.17
2018-09-25T06:45:08.321Z,0.70
2018-09-25T06:47:42.495Z,1.30
2018-09-25T06:50:16.676Z,2.90
2018-09-25T06:52:50.844Z,3.13
2018-09-25T06:55:24.969Z,3.73
2018-09-25T06:57:58.884Z,1.27
2018-09-25T07:00:32.945Z,2.00
2018-09-25T07:03:06.941Z,1.90
2018-09-25T07:05:41.013Z,2.83
2018-09-25T07:08:15.035Z,1.70
2018-09-25T07:10:49.161Z,1.10
2018-09-25T07:13:23.121Z,1.03
2018-09-25T07:15:57.115Z,2.30
2018-09-25T07:18:31.264Z,2.40
2018-09-25T07:21:05.773Z,1.97
2018-09-25T07:23:39.867Z,0.97
2018-09-25T07:26:17.866Z,2.00
2018-09-25T07:28:51.997Z,1.17
2018-09-25T07:31:26.986Z,1.20
2018-09-25T07:34:01.072Z,2.80
2018-09-25T07:36:35.390Z,3.93
2018-09-25T07:39:10.606Z,1.20
2018-09-25T07:41:44.777Z,1.07
2018-09-25T07:44:18.793Z,1.97
2018-09-25T07:46:52.855Z,2.07
2018-09-25T07:49:26.929Z,1.07
2018-09-25T07:52:01.124Z,1.73
2018-09-25T07:54:35.233Z,2.30
2018-09-25T07:57:09.272Z,0.90
2018-09-25T07:59:43.246Z,1.10
2018-09-25T08:02:17.241Z,2.17
2018-09-25T08:04:51.148Z,3.70
2018-09-25T08:07:25.139Z,2.20
2018-09-25T08:09:59.230Z,1.47
2018-09-25T08:12:33.344Z,1.63
2018-09-25T08:15:07.352Z,2.03
2018-09-25T08:17:41.461Z,3.13
2018-09-25T08:20:15.603Z,3.60
2018-09-25T08:22:49.708Z,2.77
2018-09-25T08:25:23.829Z,1.57
2018-09-25T08:27:57.734Z,0.87
2018-09-25T08:30:31.596Z,2.63
2018-09-25T08:33:05.552Z,2.40
2018-09-25T08:35:39.612Z,3.30
2018-09-25T08:38:13.510Z,1.13
2018-09-25T08:40:47.645Z,1.07
2018-09-25T08:43:21.820Z,2.23
2018-09-25T08:45:55.807Z,2.47
2018-09-25T08:48:29.852Z,4.03
2018-09-25T08:51:03.860Z,0.87
2018-09-25T08:53:37.908Z,2.80
2018-09-25T08:56:11.962Z,1.23
2018-09-25T08:58:45.816Z,1.30
2018-09-25T09:01:19.749Z,3.10
2018-09-25T09:03:53.691Z,1.83
2018-09-25T09:06:27.755Z,4.17
2018-09-25T09:09:01.758Z,0.90
2018-09-25T09:11:35.741Z,1.97
2018-09-25T09:14:09.702Z,1.23
2018-09-25T09:16:43.810Z,1.27
2018-09-25T09:19:17.812Z,1.10
2018-09-25T09:21:51.878Z,1.73
2018-09-25T09:24:25.945Z,0.73
2018-09-25T09:26:59.938Z,0.63
2018-09-25T09:29:33.945Z,2.33
2018-09-25T09:32:07.956Z,3.47
2018-09-25T09:34:42.133Z,1.13
2018-09-25T09:37:16.232Z,1.23
2018-09-25T09:39:50.308Z,2.63
2018-09-25T09:42:24.425Z,2.83
2018-09-25T09:44:58.437Z,1.27
2018-09-25T09:47:32.497Z,1.40
2018-09-25T09:50:06.365Z,3.00
2018-09-25T09:52:40.296Z,1.00
2018-09-25T09:55:14.217Z,1.23
2018-09-25T09:57:48.094Z,1.70
2018-09-25T10:00:22.077Z,2.30
2018-09-25T10:02:56.180Z,4.30
2018-09-25T10:05:30.233Z,2.93
2018-09-25T10:08:04.349Z,3.07
2018-09-25T10:10:38.417Z,2.30
2018-09-25T10:13:12.649Z,2.30
2018-09-25T10:15:46.737Z,4.50
2018-09-25T10:18:20.638Z,4.10
2018-09-25T10:20:54.721Z,2.00
2018-09-25T10:23:28.941Z,3.80
2018-09-25T10:26:02.912Z,1.43
2018-09-25T10:28:36.817Z,1.70
2018-09-25T10:31:10.834Z,1.40
2018-09-25T10:33:45.046Z,2.00
2018-09-25T10:36:19.185Z,1.97
2018-09-25T10:38:53.120Z,1.87
2018-09-25T10:41:27.057Z,2.27
2018-09-25T10:44:01.011Z,2.60
2018-09-25T10:46:35.910Z,1.90
2018-09-25T10:49:10.009Z,2.00
2018-09-25T10:51:43.999Z,2.47
2018-09-25T10:54:18.404Z,1.37
2018-09-25T10:56:52.370Z,2.30
2018-09-25T10:59:26.405Z,3.63
2018-09-25T11:02:00.396Z,2.87
2018-09-25T11:04:34.290Z,4.97
2018-09-25T11:07:08.189Z,5.70
2018-09-25T11:09:42.089Z,7.33
2018-09-25T11:12:16.004Z,2.83
2018-09-25T11:14:50.085Z,1.30
2018-09-25T11:17:24.149Z,2.87
2018-09-25T11:19:58.108Z,2.70
2018-09-25T11:22:32.252Z,6.03
2018-09-25T11:25:06.375Z,2.67
2018-09-25T11:27:40.372Z,1.60
2018-09-25T11:30:14.321Z,3.17
2018-09-25T11:32:48.361Z,3.67
2018-09-25T11:35:22.272Z,5.93
2018-09-25T11:37:56.345Z,3.27
2018-09-25T11:40:30.240Z,5.77
2018-09-25T11:43:04.246Z,5.37
2018-09-25T11:45:39.017Z,4.40
2018-09-25T11:48:13.035Z,3.20
2018-09-25T11:50:47.037Z,3.93
2018-09-25T11:53:21.058Z,9.43
2018-09-25T11:55:55.139Z,6.17
2018-09-25T11:58:29.230Z,5.73
2018-09-25T12:01:03.421Z,5.23
2018-09-25T12:03:37.420Z,3.23
2018-09-25T12:06:12.543Z,3.00
2018-09-25T12:08:46.683Z,2.50
2018-09-25T12:11:20.743Z,3.67
2018-09-25T12:13:54.850Z,4.80
2018-09-25T12:16:28.873Z,4.63
2018-09-25T12:19:02.941Z,5.77
2018-09-25T12:21:37.089Z,5.70
2018-09-25T12:24:11.099Z,3.93
2018-09-25T12:26:44.988Z,6.57
2018-09-25T12:29:18.947Z,8.13
2018-09-25T12:31:52.891Z,5.67
2018-09-25T12:34:26.888Z,4.60
2018-09-25T12:37:02.231Z,3.33
2018-09-25T12:39:36.157Z,3.70
2018-09-25T12:42:10.716Z,2.50
2018-09-25T12:44:44.749Z,4.37
2018-09-25T12:47:18.790Z,3.67
2018-09-25T12:49:52.796Z,4.13
2018-09-25T12:52:26.853Z,3.90
2018-09-25T12:55:00.953Z,4.57
2018-09-25T12:57:34.804Z,4.27
2018-09-25T13:00:09.019Z,1.90
2018-09-25T13:02:42.970Z,3.57
2018-09-25T13:05:16.944Z,5.73
2018-09-25T13:07:50.955Z,2.43
2018-09-25T13:10:24.980Z,6.30
2018-09-25T13:12:59.269Z,3.17
2018-09-25T13:15:33.144Z,5.13
2018-09-25T13:18:07.380Z,2.87
2018-09-25T13:20:41.326Z,4.13
2018-09-25T13:23:17.132Z,5.17
2018-09-25T13:25:51.231Z,3.57
2018-09-25T13:28:25.128Z,6.37
2018-09-25T13:30:59.214Z,4.07
2018-09-25T13:33:33.145Z,2.53
2018-09-25T13:36:07.107Z,4.03
2018-09-25T13:38:41.143Z,3.40
2018-09-25T13:41:15.108Z,7.17
2018-09-25T13:43:49.053Z,6.63
2018-09-25T13:46:23.142Z,7.53
2018-09-25T13:48:58.120Z,4.77
2018-09-25T13:51:32.292Z,4.33
2018-09-25T13:54:06.357Z,4.90
2018-09-25T13:56:40.411Z,7.17
2018-09-25T13:59:15.416Z,6.10
2018-09-25T14:01:49.505Z,4.10
2018-09-25T14:04:23.792Z,7.07
2018-09-25T14:06:57.866Z,6.47
2018-09-25T14:09:31.865Z,5.00
2018-09-25T14:12:05.782Z,6.63
2018-09-25T14:14:39.737Z,3.00
2018-09-25T14:17:13.734Z,8.80
2018-09-25T14:19:47.788Z,3.63
2018-09-25T14:22:21.873Z,5.43
2018-09-25T14:24:55.794Z,6.43
2018-09-25T14:27:30.380Z,5.70
2018-09-25T14:30:04.452Z,4.30
2018-09-25T14:32:39.102Z,4.07
2018-09-25T14:35:14.329Z,4.60
2018-09-25T14:37:48.289Z,4.43
2018-09-25T14:40:22.435Z,6.40
2018-09-25T14:42:56.528Z,8.40
2018-09-25T14:45:30.473Z,4.77
2018-09-25T14:48:04.428Z,5.23
2018-09-25T14:50:39.207Z,3.27
2018-09-25T14:53:13.200Z,6.87
2018-09-25T14:55:47.316Z,6.70
2018-09-25T14:58:21.211Z,3.63
2018-09-25T15:00:55.366Z,3.67
2018-09-25T15:03:29.374Z,3.13
2018-09-25T15:06:03.468Z,6.20
2018-09-25T15:08:37.481Z,3.70
2018-09-25T15:11:11.571Z,2.60
2018-09-25T15:13:45.509Z,2.40
2018-09-25T15:16:19.416Z,6.03
2018-09-25T15:18:53.380Z,4.47
2018-09-25T15:21:27.472Z,11.37
2018-09-25T15:24:01.506Z,6.60
2018-09-25T15:26:36.153Z,5.23
2018-09-25T15:29:10.119Z,5.90
2018-09-25T15:31:44.048Z,3.43
2018-09-25T15:34:18.037Z,6.50
2018-09-25T15:36:52.164Z,2.70
2018-09-25T15:39:26.279Z,9.33
2018-09-25T15:42:01.596Z,5.17
2018-09-25T15:44:35.486Z,7.50
2018-09-25T15:47:10.200Z,5.63
2018-09-25T15:49:44.240Z,6.80
2018-09-25T15:52:18.308Z,3.53
2018-09-25T15:54:52.173Z,4.40
2018-09-25T15:57:27.052Z,4.00
2018-09-25T16:00:01.002Z,7.20
2018-09-25T16:02:35.440Z,5.17
2018-09-25T16:05:09.491Z,5.83
2018-09-25T16:07:43.561Z,8.07
2018-09-25T16:10:17.676Z,5.27
2018-09-25T16:12:51.752Z,5.33
2018-09-25T16:15:25.702Z,8.47
2018-09-25T16:17:59.872Z,7.10
2018-09-25T16:20:34.005Z,12.47
2018-09-25T16:23:08.008Z,6.13
2018-09-25T16:25:42.069Z,5.53
2018-09-25T16:28:16.027Z,3.90
2018-09-25T16:30:50.132Z,6.77
2018-09-25T16:33:24.256Z,7.70
2018-09-25T16:35:58.211Z,6.03
2018-09-25T16:38:32.336Z,7.07
2018-09-25T16:41:06.187Z,6.90
2018-09-25T16:43:40.657Z,4.67
2018-09-25T16:46:14.632Z,6.77
2018-09-25T16:48:48.776Z,15.70
2018-09-25T16:51:22.660Z,7.37
2018-09-25T16:53:56.624Z,5.67
2018-09-25T16:56:30.672Z,6.90
2018-09-25T16:59:04.763Z,8.97
2018-09-25T17:01:38.622Z,6.83
2018-09-25T17:04:12.696Z,6.90
2018-09-25T17:06:46.784Z,6.23
2018-09-25T17:09:20.921Z,9.67
2018-09-25T17:11:54.907Z,6.87
2018-09-25T17:18:21.676Z,5.97
2018-09-25T17:20:55.610Z,7.33
2018-09-25T17:23:29.468Z,8.00
2018-09-25T17:26:03.532Z,9.43
2018-09-25T17:28:37.620Z,9.90
2018-09-25T17:31:11.796Z,14.87
2018-09-25T17:33:45.771Z,10.20
2018-09-25T17:36:20.348Z,4.40
2018-09-25T17:38:54.468Z,7.87
2018-09-25T17:41:28.528Z,7.70
2018-09-25T17:44:02.568Z,8.93
2018-09-25T17:46:37.016Z,8.17
2018-09-25T17:49:11.845Z,10.10
2018-09-25T17:51:45.956Z,8.93
2018-09-25T17:54:19.784Z,6.03
2018-09-25T17:56:53.772Z,5.17
2018-09-25T17:59:27.616Z,5.00
2018-09-25T18:02:01.702Z,11.60
2018-09-25T18:04:35.727Z,6.60
2018-09-25T18:07:09.875Z,12.10
2018-09-25T18:09:43.832Z,9.23
2018-09-25T18:12:17.832Z,18.10
2018-09-25T18:14:52.216Z,7.77
2018-09-25T18:17:26.068Z,9.10
2018-09-25T18:19:59.904Z,8.03
2018-09-25T18:22:34.169Z,7.87
2018-09-25T18:25:08.211Z,6.07
2018-09-25T18:27:42.375Z,6.53
2018-09-25T18:30:16.796Z,6.67
2018-09-25T18:32:50.721Z,8.40
2018-09-25T18:35:24.800Z,7.87
2018-09-25T18:37:58.872Z,4.83
2018-09-25T18:40:32.873Z,10.40
2018-09-25T18:43:06.825Z,5.60
2018-09-25T18:45:40.645Z,7.70
2018-09-25T18:48:14.705Z,11.40
2018-09-25T18:50:50.690Z,8.60
2018-09-25T18:53:24.600Z,13.55
2018-09-25T18:55:58.621Z,8.87
2018-09-25T18:58:32.636Z,10.03
2018-09-25T19:01:06.710Z,9.70
2018-09-25T19:03:40.814Z,6.57
2018-09-25T19:06:14.707Z,8.80
2018-09-25T19:08:48.736Z,10.53
2018-09-25T19:11:22.878Z,7.97
2018-09-25T19:13:57.080Z,9.77
2018-09-25T19:16:31.199Z,6.90
2018-09-25T19:19:05.216Z,13.20
2018-09-25T19:21:39.361Z,10.17
2018-09-25T19:24:13.542Z,6.70
2018-09-25T19:26:47.663Z,5.43
2018-09-25T19:29:21.528Z,6.80
2018-09-25T19:31:59.869Z,10.73
2018-09-25T19:34:34.024Z,8.23
2018-09-25T19:37:07.913Z,7.77
2018-09-25T19:39:41.789Z,6.80
2018-09-25T19:42:15.921Z,11.40
2018-09-25T19:44:50.089Z,13.00
2018-09-25T19:47:24.132Z,7.63
2018-09-25T19:49:58.074Z,6.03
2018-09-25T19:52:32.215Z,5.43
2018-09-25T19:55:06.204Z,5.83
2018-09-25T19:57:40.180Z,7.17
2018-09-25T20:00:14.035Z,5.40
2018-09-25T20:02:48.172Z,4.80
2018-09-25T20:05:22.052Z,6.03
2018-09-25T20:07:56.051Z,5.47
2018-09-25T20:10:31.191Z,8.30
2018-09-25T20:13:06.079Z,6.10
2018-09-25T20:15:40.133Z,5.40
2018-09-25T20:18:14.172Z,10.43
2018-09-25T20:20:48.372Z,4.77
2018-09-25T20:23:22.292Z,6.83
2018-09-25T20:25:56.292Z,6.50
2018-09-25T20:28:30.428Z,5.47
2018-09-25T20:31:04.415Z,5.83
2018-09-25T20:33:38.281Z,5.13
2018-09-25T20:36:12.540Z,7.87
2018-09-25T20:38:46.511Z,6.33
2018-09-25T20:41:20.498Z,5.40
2018-09-25T20:43:54.396Z,6.43
2018-09-25T20:46:28.333Z,6.00
2018-09-25T20:49:02.297Z,6.90
2018-09-25T20:51:36.444Z,7.77
2018-09-25T20:54:10.464Z,5.53
2018-09-25T20:56:44.455Z,8.80
2018-09-25T20:59:18.434Z,5.57
2018-09-25T21:01:52.348Z,7.00
2018-09-25T21:04:26.352Z,6.57
2018-09-25T21:07:00.548Z,3.63
2018-09-25T21:09:34.537Z,5.33
2018-09-25T21:12:08.692Z,3.13
2018-09-25T21:14:42.620Z,5.63
2018-09-25T21:17:16.658Z,8.03
2018-09-25T21:19:50.728Z,6.20
2018-09-25T21:22:24.657Z,5.60
2018-09-25T21:24:59.692Z,5.53
2018-09-25T21:27:33.628Z,8.13
2018-09-25T21:30:07.708Z,9.80
2018-09-25T21:32:41.759Z,12.53
2018-09-25T21:35:15.720Z,6.10
2018-09-25T21:37:50.692Z,6.90
2018-09-25T21:40:24.600Z,4.17
2018-09-25T21:42:58.597Z,5.57
2018-09-25T21:45:32.559Z,9.03
2018-09-25T21:48:06.503Z,6.97
2018-09-25T21:50:40.385Z,4.20
2018-09-25T21:53:14.417Z,5.43
2018-09-25T21:55:48.484Z,8.57
2018-09-25T21:58:22.542Z,6.13
2018-09-25T22:00:56.515Z,5.70
2018-09-25T22:03:30.512Z,7.10
2018-09-25T22:06:04.500Z,7.83
2018-09-25T22:08:38.503Z,7.67
2018-09-25T22:11:12.580Z,10.27
2018-09-25T22:13:46.528Z,4.13
2018-09-25T22:16:20.412Z,6.53
2018-09-25T22:18:54.571Z,8.53
2018-09-25T22:21:28.516Z,3.83
2018-09-25T22:24:02.604Z,5.83
2018-09-25T22:26:36.552Z,6.97
2018-09-25T22:29:10.664Z,4.20
2018-09-25T22:31:44.733Z,4.73
2018-09-25T22:34:18.908Z,9.47
2018-09-25T22:36:53.277Z,7.07
2018-09-25T22:39:27.442Z,6.00
2018-09-25T22:42:01.472Z,7.33
2018-09-25T22:44:35.596Z,7.77
2018-09-25T22:47:09.836Z,4.53
2018-09-25T22:49:43.828Z,5.73
2018-09-25T22:52:17.653Z,6.33
2018-09-25T22:54:51.611Z,4.40
2018-09-25T22:57:29.076Z,3.87
2018-09-25T23:00:03.124Z,4.57
2018-09-25T23:02:37.176Z,8.67
2018-09-25T23:05:11.232Z,5.93
2018-09-25T23:07:45.368Z,6.57
2018-09-25T23:10:19.525Z,5.90
2018-09-25T23:12:53.401Z,4.23
2018-09-25T23:15:27.368Z,5.53
2018-09-25T23:18:01.380Z,5.03
2018-09-25T23:20:35.509Z,4.97
2018-09-25T23:23:09.638Z,8.13
2018-09-25T23:25:43.690Z,4.63
2018-09-25T23:28:17.800Z,6.20
2018-09-25T23:30:51.832Z,5.10
2018-09-25T23:33:25.710Z,6.60
2018-09-25T23:35:59.679Z,7.00
2018-09-25T23:38:33.700Z,7.20
2018-09-25T23:41:07.668Z,6.03
2018-09-25T23:43:41.520Z,3.10
2018-09-25T23:46:15.559Z,5.57
2018-09-25T23:48:52.371Z,5.77
2018-09-25T23:51:55.404Z,6.33
2018-09-25T23:56:34.027Z,5.30
2018-09-25T23:59:08.640Z,4.77
